Flight Track Log - Related Links

Times and Time Zones

All times are in EDT time to prevent confusion due to time zone crossing. See the KAP5 flight status page for this flight to view local times or setup timezone preferences in your user account.

Time Position Orientation Groundspeed Altitude Reporting Facility
EDT Latitude Longitude Course Direction KTS MPH feet Rate Location/Type
Sat 09:31:15 AM 42.3667 -71.0167 246° West 111 128 500  Level KA90
Sat 09:32:45 AM 42.3500 -71.0667 246° West 106 122 2,200 1,000 Climbing KA90
Sat 09:33:45 AM 42.3500 -71.1167 270° West 121 139 3,000 700 Climbing KA90
Sat 09:34:45 AM 42.3500 -71.1667 270° West 122 140 3,600 632 Climbing KA90
Sat 09:35:39 AM 42.3333 -71.2000 236° Southwest 107 123 4,200 619 Climbing KA90
Sat 09:36:51 AM 42.3333 -71.2500 270° West 104 120 4,900 545 Climbing KA90
Sat 09:37:51 AM 42.3333 -71.2833 270° West 110 127 5,400 450 Climbing KA90
Sat 09:38:51 AM 42.3333 -71.3333 270° West 119 137 5,800 450 Climbing KA90
Sat 09:39:51 AM 42.3167 -71.3667 236° Southwest 122 140 6,300 450 Climbing KA90
Sat 09:40:51 AM 42.3167 -71.4167 270° West 129 148 6,700 433 Climbing KA90
Sat 09:41:28 AM 42.3086 -71.4575 255° West 131 151 7,000 450 Climbing Boston Center
Sat 09:42:11 AM 42.3047 -71.4883 260° West 133 153 7,300 408 Climbing Boston Center
Sat 09:43:11 AM 42.2989 -71.5392 261° West 135 155 7,700 397 Climbing Boston Center
Sat 09:44:12 AM 42.2950 -71.5925 264° West 139 160 8,100 295 Climbing Boston Center
Sat 09:45:13 AM 42.2975 -71.6514 273° West 154 177 8,300 344 Climbing Boston Center
Sat 09:46:14 AM 42.2981 -71.7047 271° West 143 165 8,800 541 Climbing Boston Center
Sat 09:47:15 AM 42.2961 -71.7525 267° West 132 152 9,400 541 Climbing Boston Center
Sat 09:48:16 AM 42.2986 -71.8031 274° West 132 152 9,900 328 Climbing Boston Center
Sat 09:49:23 AM 42.2967 -71.8619 267° West 142 163 10,100 94 Climbing Boston Center
Sat 09:50:24 AM 42.2992 -71.9236 273° West 163 188 10,100  Level Boston Center
Sat 09:51:25 AM 42.2975 -71.9881 268° West 168 193 10,100  Level Boston Center
Sat 09:52:19 AM 42.2975 -72.0472 270° West 170 196 10,100  Level Boston Center
Sat 09:53:20 AM 42.3000 -72.1117 273° West 171 197 10,100  Level Boston Center
Sat 09:54:21 AM 42.3208 -72.1706 296° West 173 199 10,100 -49 Level Boston Center
Sat 09:55:22 AM 42.3378 -72.2322 290° West 171 197 10,000 -47 Descending Boston Center
Sat 09:56:29 AM 42.3544 -72.2997 288° West 169 194 10,000  Level Boston Center
Sat 09:57:30 AM 42.3711 -72.3586 291° West 170 196 10,000 47 Level Boston Center
Sat 09:58:37 AM 42.3900 -72.4289 290° West 169 194 10,100  Climbing Boston Center
Sat 09:59:32 AM 42.4025 -72.4822 288° West 170 196 10,000 -52 Descending Boston Center
Sat 10:00:33 AM 42.4192 -72.5442 290° West 169 194 10,000  Level Boston Center
Sat 10:01:34 AM 42.4358 -72.5978 293° West 169 194 10,000  Level Boston Center
Sat 10:02:35 AM 42.4522 -72.6625 289° West 168 193 10,000  Level Boston Center
Sat 10:03:36 AM 42.4689 -72.7244 290° West 168 193 10,000  Level Boston Center
Sat 10:04:16 AM 42.4792 -72.7611 291° West 168 193 10,000  Level Boston Center
Sat 10:05:23 AM 42.4978 -72.8231 292° West 165 190 10,000  Level Boston Center
Sat 10:06:18 AM 42.5100 -72.8767 287° West 164 189 10,000  Level Boston Center
Sat 10:07:18 AM 42.5244 -72.9358 288° West 163 188 10,000  Level Boston Center
Sat 10:08:19 AM 42.5408 -72.9981 290° West 164 189 10,000  Level Boston Center
Sat 10:09:26 AM 42.5592 -73.0631 291° West 167 192 10,000  Level Boston Center
Sat 10:10:26 AM 42.5714 -73.1222 286° West 167 192 10,000 -248 Level Boston Center
Sat 10:11:27 AM 42.5897 -73.1817 293° West 174 200 9,500 -639 Descending Boston Center
Sat 10:12:28 AM 42.6081 -73.2525 289° West 191 220 8,700 -783 Descending Boston Center
Sat 10:13:22 AM 42.6242 -73.3092 291° West 186 214 8,000 -771 Descending Boston Center
Sat 10:14:17 AM 42.6383 -73.3686 288° West 176 203 7,300 -776 Descending Boston Center
Sat 10:15:18 AM 42.6525 -73.4253 289° West 163 188 6,500 -756 Descending Boston Center
Sat 10:16:24 AM 42.6875 -73.4794 311° West 178 205 5,700 -614 Descending Boston Center
Sat 10:17:25 AM 42.7308 -73.5114 332° Northwest 175 201 5,200 -448 Descending Boston Center
Sat 10:18:38 AM 42.7783 -73.5489 330° Northwest 167 192 4,700 -496 Descending Boston Center
Sat 10:19:26 AM 42.8136 -73.5750 332° Northwest 176 203 4,200 -550 Descending Boston Center
Sat 10:20:27 AM 42.8339 -73.6319 296° West 176 203 3,700 -590 Descending Boston Center
Sat 10:21:28 AM 42.8519 -73.7003 290° West 169 194 3,000 -590 Descending Boston Center
Sat 10:22:29 AM 42.8575 -73.7572 278° West 158 182 2,500 -590 Descending Boston Center
Sat 10:23:30 AM 42.8258 -73.8017 226° Southwest 166 191 1,800 -793 Descending Boston Center
Sat 10:24:30 AM 42.7819 -73.8092 187° South 154 177 900 -900 Descending Boston Center
Sat 10:26:00 AM 42.7491 -73.8020 212° Southwest  Level Estimated
Sat 10:33:00 AM 42.7491 -73.8020 212° Southwest  Level Estimated
Sat 10:34:00 AM 42.7491 -73.8020 212° Southwest  Level Estimated
Sat 10:35:00 AM 42.7491 -73.8020 212° Southwest  Level Estimated

Login

Don't have an account? Register now (free) for customized features, flight alerts, and more!